Time;durP1;ratioP1;P1;durP2;ratioP2;P2;SDS_P1;SDS_P2;PMS_P1;PMS_P2;Temp;Humidity;BMP_temperature;BMP_pressure;BME280_temperature;BME280_humidity;BME280_pressure;Samples;Min_cycle;Max_cycle;Signal;HPM_P1;HPM_P2
2024/03/21 00:01:33;;;;;;;;;;;;;;;15.45;47.20;101195.56;5036146;28;1910;-56
2024/03/21 00:03:58;;;;;;;;;;;;;;;15.23;46.20;101188.06;5036157;28;1198;-56
2024/03/21 00:06:25;;;;;;;;;;;;;;;15.71;47.37;101181.63;5036134;28;1064;-55
2024/03/21 00:08:50;;;;;;;;;;;;;;;16.83;45.74;101178.97;5036408;28;1156;-56
2024/03/21 00:11:16;;;;;;;;;;;;;;;15.54;47.32;101179.09;5035950;28;1169;-55
2024/03/21 00:13:41;;;;;;;;;;;;;;;15.28;47.09;101181.53;5036277;28;1079;-56
2024/03/21 00:16:07;;;;;;;;;;;;;;;15.34;47.19;101172.38;5035760;28;1075;-56
2024/03/21 00:18:32;;;;;;;;;;;;;;;17.06;45.40;101171.25;5036112;28;1150;-56
2024/03/21 00:20:58;;;;;;;;;;;;;;;15.69;47.10;101170.25;5035985;28;1160;-55
2024/03/21 00:23:24;;;;;;;;;;;;;;;15.32;46.77;101160.13;5036317;28;1906;-55
2024/03/21 00:25:50;;;;;;;;;;;;;;;16.71;45.86;101160.25;5036186;28;1142;-54
2024/03/21 00:28:16;;;;;;;;;;;;;;;15.55;47.53;101150.75;5035867;28;1198;-56
2024/03/21 00:30:43;;;;;;;;;;;;;;;15.28;46.81;101147.06;5035975;28;1067;-55
2024/03/21 00:33:10;;;;;;;;;;;;;;;15.14;46.13;101152.38;5036063;28;1020;-55
2024/03/21 00:35:36;;;;;;;;;;;;;;;16.62;46.58;101142.25;5035457;28;1059;-56
2024/03/21 00:38:01;;;;;;;;;;;;;;;16.26;46.69;101144.59;5036314;28;1290;-56
2024/03/21 00:40:27;;;;;;;;;;;;;;;15.60;47.32;101139.88;5035720;28;1032;-55
2024/03/21 00:42:52;;;;;;;;;;;;;;;15.62;48.00;101141.47;5035731;28;2003;-55
2024/03/21 00:45:18;;;;;;;;;;;;;;;17.01;45.78;101137.88;5035701;28;1063;-56
2024/03/21 00:47:43;;;;;;;;;;;;;;;15.68;47.20;101140.25;5035902;28;1146;-56
2024/03/21 00:50:09;;;;;;;;;;;;;;;15.36;47.09;101145.75;5035719;28;1079;-56
2024/03/21 00:52:34;;;;;;;;;;;;;;;15.13;46.55;101140.06;5017730;28;1115;-56
2024/03/21 00:55:00;;;;;;;;;;;;;;;16.36;47.02;101132.44;5035319;28;1126;-56
2024/03/21 00:57:27;;;;;;;;;;;;;;;16.88;45.58;101132.53;5036287;28;1096;-59
2024/03/21 00:59:53;;;;;;;;;;;;;;;15.72;47.16;101115.22;5036090;28;1087;-54
2024/03/21 01:02:19;;;;;;;;;;;;;;;15.29;47.03;101114.34;5035536;28;1913;-54
2024/03/21 01:04:50;;;;;;;;;;;;;;;16.95;46.05;101119.66;5035723;28;1164;-54
2024/03/21 01:07:17;;;;;;;;;;;;;;;15.72;47.46;101117.03;5035874;28;1134;-55
2024/03/21 01:09:43;;;;;;;;;;;;;;;15.38;46.75;101115.53;5039061;28;1123;-54
2024/03/21 01:12:09;;;;;;;;;;;;;;;15.22;46.13;101109.47;5039134;28;1111;-54
2024/03/21 01:14:34;;;;;;;;;;;;;;;16.83;45.99;101104.56;5038923;28;1039;-54
2024/03/21 01:17:00;;;;;;;;;;;;;;;15.76;47.34;101102.63;5038880;28;1226;-54
2024/03/21 01:19:26;;;;;;;;;;;;;;;16.01;48.19;101101.94;5039372;28;1234;-55
2024/03/21 01:21:51;;;;;;;;;;;;;;;16.40;46.67;101104.72;5039079;28;1897;-56
2024/03/21 01:24:17;;;;;;;;;;;;;;;15.75;48.55;101098.25;5038945;28;1064;-54
2024/03/21 01:26:43;;;;;;;;;;;;;;;17.78;44.68;101106.00;5039557;28;1115;-55
2024/03/21 01:29:08;;;;;;;;;;;;;;;16.23;47.08;101103.16;5038378;28;1063;-55
2024/03/21 01:31:34;;;;;;;;;;;;;;;15.71;46.91;101091.47;5038844;28;1051;-57
2024/03/21 01:34:01;;;;;;;;;;;;;;;15.42;46.81;101087.03;5038503;28;1063;-54
2024/03/21 01:36:26;;;;;;;;;;;;;;;15.71;47.14;101092.31;5032128;28;1206;-55
2024/03/21 01:38:52;;;;;;;;;;;;;;;16.59;46.51;101084.88;5038850;28;1267;-54
2024/03/21 01:41:17;;;;;;;;;;;;;;;15.69;47.18;101074.78;5038373;28;1028;-57
2024/03/21 01:43:43;;;;;;;;;;;;;;;15.44;46.86;101074.56;5038437;28;1977;-54
2024/03/21 01:46:08;;;;;;;;;;;;;;;15.20;45.94;101069.81;5038547;28;1129;-54
2024/03/21 01:48:34;;;;;;;;;;;;;;;15.32;46.97;101065.56;5038384;28;1068;-53
2024/03/21 01:50:59;;;;;;;;;;;;;;;16.81;45.87;101059.50;5070265;28;1196;-54
2024/03/21 01:53:25;;;;;;;;;;;;;;;15.60;47.70;101058.50;5038256;28;1118;-53
2024/03/21 01:55:50;;;;;;;;;;;;;;;15.25;47.11;101056.28;5036895;28;1040;-55
2024/03/21 01:58:16;;;;;;;;;;;;;;;16.87;46.35;101059.09;5038087;28;1210;-55
2024/03/21 02:00:41;;;;;;;;;;;;;;;15.96;47.20;101058.03;5038610;28;1136;-54
2024/03/21 02:03:07;;;;;;;;;;;;;;;15.48;47.04;101054.00;5036853;28;1906;-53
2024/03/21 02:05:32;;;;;;;;;;;;;;;16.20;47.80;101055.59;5037970;28;1172;-55
2024/03/21 02:07:58;;;;;;;;;;;;;;;16.69;46.20;101049.72;5038384;28;1242;-58
2024/03/21 02:10:23;;;;;;;;;;;;;;;15.78;46.93;101048.50;5038491;28;1138;-54
2024/03/21 02:12:50;;;;;;;;;;;;;;;15.42;46.59;101039.31;5037894;28;1142;-55
2024/03/21 02:15:15;;;;;;;;;;;;;;;17.29;45.69;101046.50;5038540;28;1078;-56
2024/03/21 02:17:41;;;;;;;;;;;;;;;16.33;46.96;101045.00;5037677;28;1140;-55
2024/03/21 02:20:07;;;;;;;;;;;;;;;15.65;47.19;101037.00;5069830;28;1108;-54
2024/03/21 02:22:35;;;;;;;;;;;;;;;15.34;46.85;101031.88;5037495;28;1901;-55
2024/03/21 02:25:02;;;;;;;;;;;;;;;15.72;46.91;101033.00;5037927;28;1087;-54
2024/03/21 02:27:28;;;;;;;;;;;;;;;17.45;45.18;101039.13;5038351;28;1079;-55
2024/03/21 02:29:53;;;;;;;;;;;;;;;15.97;46.97;101030.53;5037740;28;1075;-54
2024/03/21 02:32:18;;;;;;;;;;;;;;;15.46;47.11;101027.59;5037716;28;1068;-54
2024/03/21 02:34:45;;;;;;;;;;;;;;;15.35;46.13;101033.56;5037264;28;1231;-56
2024/03/21 02:37:11;;;;;;;;;;;;;;;15.40;46.68;101031.47;5037323;28;1081;-54
2024/03/21 02:39:36;;;;;;;;;;;;;;;17.27;45.82;101035.16;5037923;28;1007;-56
2024/03/21 02:42:02;;;;;;;;;;;;;;;15.99;47.23;101026.88;5036761;28;1905;-54
2024/03/21 02:44:27;;;;;;;;;;;;;;;15.49;47.46;101026.53;5037567;28;1099;-54
2024/03/21 02:46:53;;;;;;;;;;;;;;;15.36;46.62;101024.69;5037410;28;1079;-54
2024/03/21 02:49:18;;;;;;;;;;;;;;;15.21;46.17;101020.34;5037428;28;1079;-55
2024/03/21 02:51:44;;;;;;;;;;;;;;;17.04;46.13;101029.63;5036994;28;1162;-55
2024/03/21 02:54:09;;;;;;;;;;;;;;;16.63;46.29;101035.06;5037382;28;837;-54
2024/03/21 02:56:35;;;;;;;;;;;;;;;15.79;47.20;101028.16;5036923;28;1195;-55
2024/03/21 02:59:02;;;;;;;;;;;;;;;15.51;46.47;101022.00;5037497;28;1126;-56
2024/03/21 03:01:28;;;;;;;;;;;;;;;15.91;47.26;101011.41;5037098;28;1091;-56
2024/03/21 03:03:53;;;;;;;;;;;;;;;15.56;47.16;101006.63;5037175;28;2064;-56
2024/03/21 03:06:20;;;;;;;;;;;;;;;15.22;46.63;100999.03;5036923;28;1091;-55
2024/03/21 03:08:45;;;;;;;;;;;;;;;15.04;46.13;101007.19;5037150;28;1106;-56
2024/03/21 03:11:11;;;;;;;;;;;;;;;14.98;45.51;101014.69;5037319;28;1163;-55
2024/03/21 03:13:36;;;;;;;;;;;;;;;16.84;46.18;101039.84;5037222;28;1188;-53
2024/03/21 03:16:02;;;;;;;;;;;;;;;15.49;47.37;101047.75;5019462;28;1080;-53
2024/03/21 03:18:27;;;;;;;;;;;;;;;15.27;46.69;101042.00;5036229;28;915;-53
2024/03/21 03:20:53;;;;;;;;;;;;;;;16.34;46.90;101043.19;5037171;28;1074;-55
2024/03/21 03:23:18;;;;;;;;;;;;;;;17.11;45.59;101041.56;5036852;28;1914;-54
2024/03/21 03:25:44;;;;;;;;;;;;;;;15.74;47.36;101033.75;5036896;28;1060;-53
2024/03/21 03:28:09;;;;;;;;;;;;;;;15.39;47.28;101034.22;5036788;28;1474;-52
2024/03/21 03:30:35;;;;;;;;;;;;;;;15.14;46.64;101041.06;5035614;28;1096;-53
2024/03/21 03:35:33;;;;;;;;;;;;;;;16.21;47.28;101038.72;5018815;28;1024;-54
2024/03/21 03:35:49;;;;;;;;;;;;;;;16.06;46.96;101045.91;5036504;28;1220;-55
2024/03/21 03:38:15;;;;;;;;;;;;;;;15.48;47.31;101044.22;5036872;28;1048;-54
2024/03/21 03:40:41;;;;;;;;;;;;;;;15.24;46.36;101034.25;5036689;28;1127;-56
2024/03/21 03:43:06;;;;;;;;;;;;;;;15.09;46.17;101038.72;5036068;28;1902;-54
2024/03/21 03:45:32;;;;;;;;;;;;;;;15.32;46.91;101032.91;5036688;28;1024;-55
2024/03/21 03:47:57;;;;;;;;;;;;;;;17.10;45.96;101039.88;5036468;28;1072;-55
2024/03/21 03:50:23;;;;;;;;;;;;;;;16.06;47.09;101034.44;5036426;28;1103;-53
2024/03/21 03:52:48;;;;;;;;;;;;;;;15.39;47.21;101037.72;5036570;28;1056;-53
2024/03/21 03:55:14;;;;;;;;;;;;;;;16.91;46.06;101045.56;5035966;28;1079;-54
2024/03/21 03:57:39;;;;;;;;;;;;;;;15.70;47.25;101048.16;5036581;28;1044;-54
2024/03/21 04:00:05;;;;;;;;;;;;;;;15.24;47.34;101047.50;5036611;28;1098;-52
2024/03/21 04:02:38;;;;;;;;;;;;;;;15.15;46.12;101042.75;5036260;28;1958;-54
2024/03/21 04:05:06;;;;;;;;;;;;;;;16.71;46.53;101058.44;5036753;28;1208;-54
2024/03/21 04:07:32;;;;;;;;;;;;;;;16.71;46.34;101069.94;5035820;28;928;-52
2024/03/21 04:09:58;;;;;;;;;;;;;;;15.63;47.59;101087.47;5036241;28;1155;-53
2024/03/21 04:12:23;;;;;;;;;;;;;;;15.38;46.80;101078.44;5036275;28;1068;-56
2024/03/21 04:14:52;;;;;;;;;;;;;;;15.14;46.46;101089.63;5018712;28;1024;-55
2024/03/21 04:17:17;;;;;;;;;;;;;;;16.68;46.75;101090.53;5036290;28;1154;-55
2024/03/21 04:19:43;;;;;;;;;;;;;;;15.85;47.42;101093.25;5035624;28;901;-51
2024/03/21 04:22:08;;;;;;;;;;;;;;;16.34;47.52;101091.00;5036252;28;1972;-52
2024/03/21 04:24:34;;;;;;;;;;;;;;;17.08;45.50;101087.75;5036216;28;1025;-55
2024/03/21 04:26:59;;;;;;;;;;;;;;;15.84;47.10;101086.22;5035907;28;1128;-55
2024/03/21 04:29:25;;;;;;;;;;;;;;;15.62;47.99;101088.44;5036047;28;1183;-54
2024/03/21 04:31:50;;;;;;;;;;;;;;;17.46;44.92;101091.38;5035530;28;1258;-56
2024/03/21 04:34:16;;;;;;;;;;;;;;;15.94;47.28;101095.28;5036275;28;1091;-56
2024/03/21 04:36:41;;;;;;;;;;;;;;;16.80;46.79;101102.97;5035986;28;1156;-56
2024/03/21 04:39:07;;;;;;;;;;;;;;;16.71;46.40;101104.47;5035997;28;1246;-56
2024/03/21 04:41:33;;;;;;;;;;;;;;;15.91;46.96;101098.97;5035921;28;1903;-55
2024/03/21 04:43:58;;;;;;;;;;;;;;;15.59;46.75;101099.25;5039783;28;916;-55
2024/03/21 04:46:24;;;;;;;;;;;;;;;15.39;46.10;101098.72;5039866;28;1092;-56
2024/03/21 04:48:50;;;;;;;;;;;;;;;17.02;46.46;101090.84;5039678;28;1190;-58
2024/03/21 04:51:15;;;;;;;;;;;;;;;16.27;47.10;101087.88;5039086;28;1035;-58
2024/03/21 04:53:41;;;;;;;;;;;;;;;15.66;47.27;101073.19;5039491;28;1027;-56
2024/03/21 04:56:06;;;;;;;;;;;;;;;15.44;46.75;101071.91;5039243;28;982;-60
2024/03/21 04:58:32;;;;;;;;;;;;;;;17.15;45.35;101071.44;5039220;28;1234;-62
2024/03/21 05:00:57;;;;;;;;;;;;;;;15.82;47.10;101067.75;5038458;28;1200;-57
2024/03/21 05:03:23;;;;;;;;;;;;;;;15.44;47.33;101074.56;5039672;28;1995;-54
2024/03/21 05:05:48;;;;;;;;;;;;;;;16.80;46.08;101099.47;5039597;28;1184;-54
2024/03/21 05:08:14;;;;;;;;;;;;;;;15.72;47.35;101094.00;5039250;28;907;-56
2024/03/21 05:10:39;;;;;;;;;;;;;;;17.07;45.00;101087.88;5039324;28;1191;-57
2024/03/21 05:13:05;;;;;;;;;;;;;;;16.80;45.23;101089.69;5039033;28;1067;-56
2024/03/21 05:15:30;;;;;;;;;;;;;;;16.49;45.99;101095.28;5038975;28;1191;-54
2024/03/21 05:17:56;;;;;;;;;;;;;;;16.14;46.73;101079.88;5039030;28;1258;-56
2024/03/21 05:20:24;;;;;;;;;;;;;;;16.03;46.47;101075.31;5038789;28;857;-55
2024/03/21 05:22:50;;;;;;;;;;;;;;;15.77;47.18;101064.53;5038875;28;1914;-56
2024/03/21 05:25:15;;;;;;;;;;;;;;;15.65;47.21;101058.22;5039013;28;1519;-56
2024/03/21 05:27:41;;;;;;;;;;;;;;;15.48;47.46;101060.13;5039385;28;1116;-57
2024/03/21 05:30:06;;;;;;;;;;;;;;;15.41;47.98;101053.53;5038841;28;1079;-57
2024/03/21 05:32:32;;;;;;;;;;;;;;;15.24;48.17;101063.41;5038331;28;907;-57
2024/03/21 05:34:57;;;;;;;;;;;;;;;15.18;48.29;101066.44;5038418;28;1092;-56
2024/03/21 05:37:23;;;;;;;;;;;;;;;15.26;47.93;101069.47;5039064;28;1136;-55
2024/03/21 05:39:49;;;;;;;;;;;;;;;16.80;44.55;101081.72;5038767;28;1223;-56
2024/03/21 05:42:16;;;;;;;;;;;;;;;17.33;42.96;101079.91;5038324;28;1906;-56
2024/03/21 05:44:42;;;;;;;;;;;;;;;16.35;45.36;101087.41;5038720;28;1025;-58
2024/03/21 05:47:28;;;;;;;;;;;;;;;15.78;46.71;101072.38;5038420;28;1214;-57
2024/03/21 05:49:53;;;;;;;;;;;;;;;15.55;46.98;101071.22;5037986;28;1595;-58
2024/03/21 05:52:19;;;;;;;;;;;;;;;15.36;47.32;101076.84;5037863;28;1063;-60
2024/03/21 05:54:51;;;;;;;;;;;;;;;15.35;47.89;101091.88;5037581;28;1190;-58
2024/03/21 05:57:17;;;;;;;;;;;;;;;16.96;44.07;101107.25;5038054;28;1075;-56
2024/03/21 05:59:42;;;;;;;;;;;;;;;17.30;42.99;101109.38;5038401;28;1278;-56
2024/03/21 06:02:08;;;;;;;;;;;;;;;16.32;45.29;101111.47;5037661;28;1977;-56
2024/03/21 06:04:35;;;;;;;;;;;;;;;15.89;46.25;101123.91;5037985;28;1064;-55
2024/03/21 06:07:00;;;;;;;;;;;;;;;15.58;47.02;101139.13;5037568;28;1230;-56
2024/03/21 06:09:28;;;;;;;;;;;;;;;15.40;47.01;101139.31;5038251;28;1052;-58
2024/03/21 06:11:54;;;;;;;;;;;;;;;15.28;47.49;101136.47;5038162;28;1094;-58
2024/03/21 06:14:19;;;;;;;;;;;;;;;16.66;44.48;101135.78;5037863;28;1068;-56
2024/03/21 06:16:45;;;;;;;;;;;;;;;17.57;42.39;101132.31;5037734;28;1055;-57
2024/03/21 06:19:10;;;;;;;;;;;;;;;16.62;44.28;101129.84;5037216;28;1134;-56
2024/03/21 06:21:35;;;;;;;;;;;;;;;16.04;45.48;101124.75;5037892;28;1155;-57
2024/03/21 06:24:01;;;;;;;;;;;;;;;15.68;46.69;101111.09;5037558;28;2011;-57
2024/03/21 06:26:27;;;;;;;;;;;;;;;15.53;46.63;101123.50;5037727;28;1067;-57
2024/03/21 06:28:52;;;;;;;;;;;;;;;15.27;47.16;101113.56;5037364;28;1084;-57
2024/03/21 06:31:18;;;;;;;;;;;;;;;16.31;45.24;101108.00;5037651;28;1063;-53
2024/03/21 06:33:43;;;;;;;;;;;;;;;17.44;42.70;101097.75;5037357;28;1179;-55
2024/03/21 06:36:09;;;;;;;;;;;;;;;17.11;42.95;101110.66;5037497;28;1152;-56
2024/03/21 06:38:34;;;;;;;;;;;;;;;16.28;45.22;101119.63;5037368;28;1075;-55
2024/03/21 06:41:00;;;;;;;;;;;;;;;15.89;46.00;101123.91;5037363;28;1063;-56
2024/03/21 06:43:25;;;;;;;;;;;;;;;15.64;46.77;101122.81;5036945;28;1906;-52
2024/03/21 06:45:54;;;;;;;;;;;;;;;15.41;46.91;101118.00;5037620;28;1202;-55
2024/03/21 06:48:19;;;;;;;;;;;;;;;16.43;44.98;101124.06;5037307;28;1219;-54
2024/03/21 06:50:45;;;;;;;;;;;;;;;17.48;42.55;101124.03;5037532;28;1075;-57
2024/03/21 06:53:10;;;;;;;;;;;;;;;17.34;42.53;101132.13;5037151;28;1047;-56
2024/03/21 06:55:37;;;;;;;;;;;;;;;16.47;44.75;101131.72;5037388;28;1059;-57
2024/03/21 06:58:03;;;;;;;;;;;;;;;16.00;45.40;101125.91;5037295;28;1298;-54
2024/03/21 07:00:29;;;;;;;;;;;;;;;15.74;46.20;101139.88;5037224;28;1230;-58
2024/03/21 07:02:57;;;;;;;;;;;;;;;15.59;46.74;101124.91;5019162;28;1973;-57
2024/03/21 07:05:26;;;;;;;;;;;;;;;15.36;46.89;101136.00;5019038;28;1083;-54
2024/03/21 07:07:52;;;;;;;;;;;;;;;15.33;47.27;101127.41;5037159;28;1059;-57
2024/03/21 07:10:19;;;;;;;;;;;;;;;16.94;43.76;101127.75;5037259;28;1091;-56
2024/03/21 07:12:44;;;;;;;;;;;;;;;17.48;42.17;101116.03;5019449;28;1063;-54
2024/03/21 07:15:10;;;;;;;;;;;;;;;16.45;44.58;101114.19;5036872;28;968;-54
2024/03/21 07:17:35;;;;;;;;;;;;;;;15.94;45.60;101108.56;5036547;28;1052;-57
2024/03/21 07:20:01;;;;;;;;;;;;;;;15.67;46.30;101106.72;5036408;28;1133;-55
2024/03/21 07:22:26;;;;;;;;;;;;;;;15.46;47.09;101106.28;5036684;28;1979;-55
2024/03/21 07:24:52;;;;;;;;;;;;;;;15.29;47.10;101109.03;5036475;28;1067;-59
2024/03/21 07:27:18;;;;;;;;;;;;;;;16.53;44.73;101104.72;5036577;28;1179;-57
2024/03/21 07:29:43;;;;;;;;;;;;;;;17.56;42.08;101118.19;5019236;28;1146;-57
2024/03/21 07:32:09;;;;;;;;;;;;;;;16.61;44.44;101119.31;5036449;28;1087;-55
2024/03/21 07:34:35;;;;;;;;;;;;;;;15.92;45.75;101121.06;5036120;28;1071;-54
2024/03/21 07:37:00;;;;;;;;;;;;;;;15.65;46.36;101127.16;5036000;28;1006;-54
2024/03/21 07:39:26;;;;;;;;;;;;;;;15.43;46.65;101118.75;5036738;28;1104;-55
2024/03/21 07:41:51;;;;;;;;;;;;;;;15.25;47.13;101125.19;5036520;28;1902;-54
2024/03/21 07:44:17;;;;;;;;;;;;;;;16.01;45.78;101131.13;5036068;28;1131;-55
2024/03/21 07:46:42;;;;;;;;;;;;;;;17.24;42.99;101138.09;5036294;28;1083;-50
2024/03/21 07:49:08;;;;;;;;;;;;;;;16.87;43.49;101130.81;5035583;28;1134;-55
2024/03/21 07:51:34;;;;;;;;;;;;;;;16.13;45.22;101126.81;5036260;28;1058;-55
2024/03/21 07:54:00;;;;;;;;;;;;;;;15.74;46.02;101129.25;5035014;28;1238;-56
2024/03/21 07:56:25;;;;;;;;;;;;;;;15.58;46.35;101128.53;5032129;28;1080;-55
2024/03/21 07:58:51;;;;;;;;;;;;;;;15.32;46.87;101129.19;5035982;28;1060;-53
2024/03/21 08:01:17;;;;;;;;;;;;;;;15.15;47.23;101117.81;5036060;28;1243;-55
2024/03/21 08:03:42;;;;;;;;;;;;;;;16.45;44.81;101132.78;5035917;28;1912;-53
2024/03/21 08:06:08;;;;;;;;;;;;;;;17.48;42.34;101128.50;5036476;28;1147;-56
2024/03/21 08:08:33;;;;;;;;;;;;;;;16.78;43.59;101134.13;5035773;28;1130;-55
2024/03/21 08:10:59;;;;;;;;;;;;;;;16.09;45.20;101132.41;5033034;28;1258;-54
2024/03/21 08:13:25;;;;;;;;;;;;;;;15.83;45.83;101148.19;5028345;28;1463;-50
2024/03/21 08:15:52;;;;;;;;;;;;;;;15.57;46.42;101150.66;5026906;28;1415;-54
2024/03/21 08:18:18;;;;;;;;;;;;;;;15.28;47.06;101143.59;5039198;28;1095;-55
2024/03/21 08:20:47;;;;;;;;;;;;;;;16.47;45.02;101146.78;5030079;28;1404;-54
2024/03/21 08:23:13;;;;;;;;;;;;;;;17.52;42.51;101153.91;5025463;28;1914;-55
2024/03/21 08:25:38;;;;;;;;;;;;;;;16.73;43.65;101155.66;5019131;28;1377;-55
2024/03/21 08:28:04;;;;;;;;;;;;;;;16.10;45.42;101150.91;5026866;28;1067;-55
2024/03/21 08:30:29;;;;;;;;;;;;;;;15.84;46.03;101149.88;5040376;28;1126;-55
2024/03/21 08:32:55;;;;;;;;;;;;;;;15.52;46.80;101145.66;5040170;28;1132;-55
2024/03/21 08:35:20;;;;;;;;;;;;;;;15.36;47.32;101143.09;5036660;28;1278;-54
2024/03/21 08:37:46;;;;;;;;;;;;;;;16.27;45.34;101144.50;5025982;28;1103;-55
2024/03/21 08:40:13;;;;;;;;;;;;;;;17.43;42.63;101139.47;5039790;28;1151;-57
2024/03/21 08:42:39;;;;;;;;;;;;;;;16.95;43.34;101145.41;5039867;28;1973;-56
2024/03/21 08:45:06;;;;;;;;;;;;;;;16.25;44.79;101141.09;5039589;28;1047;-55
2024/03/21 08:47:32;;;;;;;;;;;;;;;15.93;45.96;101135.19;5038348;28;1203;-56
2024/03/21 08:49:57;;;;;;;;;;;;;;;15.59;46.52;101140.81;5026238;28;1139;-56
2024/03/21 08:52:23;;;;;;;;;;;;;;;15.39;47.05;101138.47;5039583;28;1226;-58
2024/03/21 08:54:48;;;;;;;;;;;;;;;15.27;47.21;101133.91;5020792;28;1267;-54
2024/03/21 08:57:14;;;;;;;;;;;;;;;16.22;45.56;101135.97;5038819;28;1203;-56
2024/03/21 08:59:39;;;;;;;;;;;;;;;17.35;42.92;101140.00;5032135;28;1293;-48
2024/03/21 09:02:06;;;;;;;;;;;;;;;17.12;42.99;101130.97;5038615;28;1968;-51
2024/03/21 09:04:31;;;;;;;;;;;;;;;16.32;44.94;101128.25;5038959;28;1291;-47
2024/03/21 09:06:57;;;;;;;;;;;;;;;15.99;45.84;101113.59;5039012;28;1290;-51
2024/03/21 09:09:22;;;;;;;;;;;;;;;15.68;46.57;101119.03;5038369;28;1115;-54
2024/03/21 09:11:48;;;;;;;;;;;;;;;15.55;47.01;101113.63;5039332;28;1048;-50
2024/03/21 09:14:13;;;;;;;;;;;;;;;15.39;47.23;101109.31;5039348;28;1099;-49
2024/03/21 09:16:39;;;;;;;;;;;;;;;15.57;46.96;101098.50;5054485;28;1067;-52
2024/03/21 09:19:04;;;;;;;;;;;;;;;17.01;43.65;101113.09;5037722;28;1045;-51
2024/03/21 09:21:31;;;;;;;;;;;;;;;17.34;42.56;101122.34;5038762;28;1290;-49
2024/03/21 09:23:57;;;;;;;;;;;;;;;16.26;44.94;101118.91;5039106;28;1979;-50
2024/03/21 09:26:22;;;;;;;;;;;;;;;15.87;45.69;101120.50;5039043;28;1055;-49
2024/03/21 09:28:48;;;;;;;;;;;;;;;15.66;46.62;101123.59;5037522;28;1223;-52
2024/03/21 09:31:13;;;;;;;;;;;;;;;15.47;46.87;101118.56;5038863;28;1067;-49
2024/03/21 09:33:39;;;;;;;;;;;;;;;15.32;47.40;101123.03;5038507;28;929;-51
2024/03/21 09:36:08;;;;;;;;;;;;;;;15.90;46.14;101131.78;5038079;28;1224;-51
2024/03/21 09:38:33;;;;;;;;;;;;;;;17.22;43.06;101131.19;5037425;28;1195;-47
2024/03/21 09:40:59;;;;;;;;;;;;;;;17.55;42.02;101120.94;5037733;28;1219;-51
2024/03/21 09:43:25;;;;;;;;;;;;;;;16.48;44.72;101121.94;5038927;28;1986;-51
2024/03/21 09:45:51;;;;;;;;;;;;;;;16.01;45.36;101111.69;5020340;28;1075;-51
2024/03/21 09:48:17;;;;;;;;;;;;;;;15.82;46.08;101115.50;5038391;28;1052;-52
2024/03/21 09:50:43;;;;;;;;;;;;;;;15.60;46.81;101105.41;5038213;28;1167;-49
2024/03/21 09:53:13;;;;;;;;;;;;;;;15.46;47.11;101098.31;5020702;28;1084;-52
2024/03/21 09:55:39;;;;;;;;;;;;;;;15.55;47.24;101103.03;5038516;28;1182;-51
2024/03/21 09:58:05;;;;;;;;;;;;;;;17.01;43.62;101113.09;5038212;28;841;-49
2024/03/21 10:00:31;;;;;;;;;;;;;;;17.41;42.35;101103.28;5020066;28;1028;-48
2024/03/21 10:02:56;;;;;;;;;;;;;;;16.48;44.54;101113.97;5038337;28;1989;-52
2024/03/21 10:05:22;;;;;;;;;;;;;;;15.91;45.91;101114.88;5038068;28;1064;-50
2024/03/21 10:07:48;;;;;;;;;;;;;;;15.76;46.41;101111.44;5037730;28;1243;-54
2024/03/21 10:10:14;;;;;;;;;;;;;;;15.49;47.08;101111.38;5037557;28;1071;-51
2024/03/21 10:12:39;;;;;;;;;;;;;;;15.42;47.23;101102.94;5052314;28;1124;-53
2024/03/21 10:15:05;;;;;;;;;;;;;;;15.57;46.98;101101.13;5037480;28;1275;-51
2024/03/21 10:17:31;;;;;;;;;;;;;;;17.01;43.56;101097.13;5037447;28;1103;-54
2024/03/21 10:19:57;;;;;;;;;;;;;;;17.38;42.54;101093.75;5037575;28;1310;-51
2024/03/21 10:22:23;;;;;;;;;;;;;;;16.43;44.43;101087.75;5037442;28;1901;-50
2024/03/21 10:24:51;;;;;;;;;;;;;;;16.00;45.81;101076.34;5037367;28;1203;-51
2024/03/21 10:27:17;;;;;;;;;;;;;;;15.70;46.24;101076.50;5020118;28;1154;-52
2024/03/21 10:29:43;;;;;;;;;;;;;;;15.55;47.10;101084.47;5037676;28;1083;-54
2024/03/21 10:32:15;;;;;;;;;;;;;;;15.38;47.10;101081.06;5026045;28;1040;-50
2024/03/21 10:34:42;;;;;;;;;;;;;;;15.57;46.83;101077.28;5037752;28;1120;-50
2024/03/21 10:37:07;;;;;;;;;;;;;;;16.99;43.62;101078.66;5019822;28;1105;-50
2024/03/21 10:39:33;;;;;;;;;;;;;;;17.56;42.21;101077.41;5037291;28;1040;-50
2024/03/21 10:41:59;;;;;;;;;;;;;;;16.50;44.26;101070.41;5033322;28;1909;-50
2024/03/21 10:44:24;;;;;;;;;;;;;;;16.04;45.75;101069.03;5006253;28;1235;-51
2024/03/21 10:46:51;;;;;;;;;;;;;;;15.72;46.10;101072.78;5043805;28;1522;-49
2024/03/21 10:49:17;;;;;;;;;;;;;;;15.58;46.91;101078.13;5032049;28;1072;-51
2024/03/21 10:51:45;;;;;;;;;;;;;;;15.41;46.88;101080.88;5037354;28;1151;-49
2024/03/21 10:54:15;;;;;;;;;;;;;;;15.22;47.39;101081.19;5037505;28;1068;-46
2024/03/21 10:56:42;;;;;;;;;;;;;;;16.57;44.71;101084.13;5036915;28;1135;-50
2024/03/21 10:59:13;;;;;;;;;;;;;;;17.52;42.51;101089.25;5030543;28;973;-50
2024/03/21 11:01:42;;;;;;;;;;;;;;;16.50;44.43;101104.94;5036965;28;1184;-53
2024/03/21 11:04:11;;;;;;;;;;;;;;;15.99;46.00;101098.53;5037223;28;1910;-51
2024/03/21 11:06:37;;;;;;;;;;;;;;;15.75;46.53;101101.78;5037103;28;1207;-50
2024/03/21 11:09:03;;;;;;;;;;;;;;;15.50;46.92;101102.47;5034814;28;1145;-50
2024/03/21 11:11:29;;;;;;;;;;;;;;;15.36;47.37;101100.69;5035653;28;1116;-48
2024/03/21 11:13:58;;;;;;;;;;;;;;;16.77;44.22;101116.47;5036761;28;1079;-51
2024/03/21 11:16:24;;;;;;;;;;;;;;;17.67;42.20;101100.56;5023827;28;1164;-51
2024/03/21 11:18:50;;;;;;;;;;;;;;;16.74;44.02;101103.38;5037141;28;1075;-50
2024/03/21 11:21:15;;;;;;;;;;;;;;;16.19;45.45;101107.00;5036178;28;1179;-50
2024/03/21 11:23:41;;;;;;;;;;;;;;;15.85;46.23;101107.34;5018735;28;1910;-49
2024/03/21 11:26:07;;;;;;;;;;;;;;;15.59;46.84;101093.09;5036254;28;1123;-53
2024/03/21 11:28:33;;;;;;;;;;;;;;;15.37;47.49;101097.09;5005699;28;1381;-50
2024/03/21 11:31:02;;;;;;;;;;;;;;;15.29;47.58;101092.25;5036756;28;1036;-50
2024/03/21 11:33:28;;;;;;;;;;;;;;;16.11;46.02;101086.28;5036648;28;1203;-48
2024/03/21 11:35:54;;;;;;;;;;;;;;;17.29;43.03;101091.72;5026852;28;1179;-50
2024/03/21 11:38:20;;;;;;;;;;;;;;;17.17;43.04;101093.44;5033226;28;1294;-52
2024/03/21 11:40:45;;;;;;;;;;;;;;;16.32;45.00;101091.09;5036728;28;1384;-49
2024/03/21 11:43:11;;;;;;;;;;;;;;;15.88;46.12;101077.13;5036490;28;1973;-48
2024/03/21 11:45:36;;;;;;;;;;;;;;;15.62;46.58;101080.50;5036560;28;1099;-50
2024/03/21 11:48:11;;;;;;;;;;;;;;;15.42;47.09;101077.31;5037294;28;1031;-50
2024/03/21 11:50:40;;;;;;;;;;;;;;;15.27;47.65;101083.56;5032114;28;1274;-53
2024/03/21 11:53:06;;;;;;;;;;;;;;;16.50;44.81;101077.53;5035554;28;1255;-51
2024/03/21 11:55:31;;;;;;;;;;;;;;;17.49;42.65;101069.88;5036040;28;1238;-51
2024/03/21 11:57:57;;;;;;;;;;;;;;;16.78;43.75;101078.34;5035573;28;1310;-47
2024/03/21 12:00:22;;;;;;;;;;;;;;;16.14;45.48;101072.78;5036165;28;1223;-51
2024/03/21 12:02:51;;;;;;;;;;;;;;;15.78;45.90;101072.38;5036023;28;1966;-51
2024/03/21 12:05:16;;;;;;;;;;;;;;;15.58;46.70;101060.41;5036135;28;1274;-51
2024/03/21 12:07:42;;;;;;;;;;;;;;;15.36;47.43;101061.78;5030379;28;1230;-51
2024/03/21 12:10:08;;;;;;;;;;;;;;;15.96;46.23;101066.00;5035573;28;1263;-48
2024/03/21 12:12:34;;;;;;;;;;;;;;;17.18;43.35;101069.41;5036051;28;1258;-51
2024/03/21 12:14:59;;;;;;;;;;;;;;;16.81;43.80;101079.91;5034474;28;1295;-53
2024/03/21 12:17:25;;;;;;;;;;;;;;;16.11;45.19;101073.00;5018844;28;1416;-52
2024/03/21 12:19:51;;;;;;;;;;;;;;;15.70;46.40;101069.38;5017879;28;1285;-53
2024/03/21 12:22:17;;;;;;;;;;;;;;;15.50;47.11;101073.28;5031707;28;1989;-51
2024/03/21 12:24:42;;;;;;;;;;;;;;;15.31;47.19;101071.81;5026005;28;1160;-50
2024/03/21 12:27:08;;;;;;;;;;;;;;;15.52;46.83;101066.97;5020437;28;1372;-52
2024/03/21 12:29:34;;;;;;;;;;;;;;;16.94;43.78;101071.94;5017925;28;1379;-51
2024/03/21 12:31:59;;;;;;;;;;;;;;;17.45;42.39;101068.38;5025289;28;1334;-50
2024/03/21 12:34:25;;;;;;;;;;;;;;;16.49;44.45;101062.56;5027970;28;1353;-51
2024/03/21 12:36:50;;;;;;;;;;;;;;;16.19;45.18;101053.91;5031747;28;1091;-54
2024/03/21 12:39:17;;;;;;;;;;;;;;;15.69;46.25;101050.91;5036333;28;1203;-50
2024/03/21 12:41:42;;;;;;;;;;;;;;;15.43;47.00;101044.53;5036190;28;1158;-47